Lake Ozark, Missouri
Current Conditions -  °F | °C
As of 11:55 AM on Friday 21 Nov 2014 (Local Time) from KAIZ Reporting Station
Overcast Overcast  
Wind Chill: 41°   Ceiling: 2300
Heat Index: 46°   Visibility: 10mi
Dew Point: 25°   Wind: 12mph
Humidity: 43%   Direction: 140°SE
Pressure: 30.26"   Gusts: 16mph
Location:  38.2°N, 92.64°W
Report Text: KAIZ 211755Z AUTO 14010G14KT 10SM OVC023 08/M04 A3026 RMK AO1 10080 21040 57014
Loading
Personal Weather Stations






























Interactive Weather Map New forecast layout! Learn more

10-Day Weather Forecast

Advertisements
Track Severe Weather on mobile